sensor_id;sensor_type;location;lat;lon;timestamp;P1;durP1;ratioP1;P2;durP2;ratioP2
20144;SDS011;10233;50.814;6.590;2024-03-23T00:54:53;1.50;;;0.90;;
20144;SDS011;10233;50.814;6.590;2024-03-23T00:55:53;2.75;;;1.20;;
20144;SDS011;10233;50.814;6.590;2024-03-23T00:56:54;1.20;;;0.65;;
20144;SDS011;10233;50.814;6.590;2024-03-23T00:57:54;5.90;;;1.30;;
20144;SDS011;10233;50.814;6.590;2024-03-23T00:58:55;1.00;;;0.73;;
20144;SDS011;10233;50.814;6.590;2024-03-23T00:59:55;1.13;;;0.90;;
20144;SDS011;10233;50.814;6.590;2024-03-23T01:00:56;5.00;;;0.90;;
20144;SDS011;10233;50.814;6.590;2024-03-23T01:01:56;2.13;;;0.73;;
20144;SDS011;10233;50.814;6.590;2024-03-23T01:02:57;2.30;;;1.30;;
20144;SDS011;10233;50.814;6.590;2024-03-23T01:03:57;4.73;;;0.80;;
20144;SDS011;10233;50.814;6.590;2024-03-23T01:04:58;6.77;;;0.80;;
20144;SDS011;10233;50.814;6.590;2024-03-23T01:06:01;4.00;;;1.50;;
20144;SDS011;10233;50.814;6.590;2024-03-23T01:07:03;2.25;;;1.45;;
20144;SDS011;10233;50.814;6.590;2024-03-23T01:08:03;1.83;;;1.30;;
20144;SDS011;10233;50.814;6.590;2024-03-23T01:09:04;1.00;;;0.70;;
20144;SDS011;10233;50.814;6.590;2024-03-23T01:10:05;2.50;;;0.77;;
20144;SDS011;10233;50.814;6.590;2024-03-23T01:11:05;0.70;;;0.43;;
20144;SDS011;10233;50.814;6.590;2024-03-23T01:12:06;2.10;;;0.97;;
20144;SDS011;10233;50.814;6.590;2024-03-23T01:13:06;1.60;;;0.80;;
20144;SDS011;10233;50.814;6.590;2024-03-23T01:14:07;0.50;;;0.50;;
20144;SDS011;10233;50.814;6.590;2024-03-23T01:15:07;0.43;;;0.33;;
20144;SDS011;10233;50.814;6.590;2024-03-23T01:16:08;2.00;;;0.67;;
20144;SDS011;10233;50.814;6.590;2024-03-23T01:17:08;1.50;;;0.60;;
20144;SDS011;10233;50.814;6.590;2024-03-23T01:18:09;0.50;;;0.50;;
20144;SDS011;10233;50.814;6.590;2024-03-23T01:19:09;0.50;;;0.40;;
20144;SDS011;10233;50.814;6.590;2024-03-23T01:20:10;0.40;;;0.40;;
20144;SDS011;10233;50.814;6.590;2024-03-23T01:21:10;0.97;;;0.40;;
20144;SDS011;10233;50.814;6.590;2024-03-23T01:22:11;2.90;;;0.90;;
20144;SDS011;10233;50.814;6.590;2024-03-23T01:23:11;3.03;;;0.87;;
20144;SDS011;10233;50.814;6.590;2024-03-23T01:24:12;0.40;;;0.38;;
20144;SDS011;10233;50.814;6.590;2024-03-23T01:25:12;2.20;;;0.93;;
20144;SDS011;10233;50.814;6.590;2024-03-23T01:26:13;0.73;;;0.73;;
20144;SDS011;10233;50.814;6.590;2024-03-23T01:27:13;6.15;;;0.98;;
20144;SDS011;10233;50.814;6.590;2024-03-23T01:28:14;1.17;;;0.50;;
20144;SDS011;10233;50.814;6.590;2024-03-23T01:29:15;0.45;;;0.45;;
20144;SDS011;10233;50.814;6.590;2024-03-23T01:30:15;1.97;;;0.67;;
20144;SDS011;10233;50.814;6.590;2024-03-23T01:31:16;2.15;;;0.82;;
20144;SDS011;10233;50.814;6.590;2024-03-23T01:32:16;0.40;;;0.20;;
20144;SDS011;10233;50.814;6.590;2024-03-23T01:33:17;2.00;;;0.90;;
20144;SDS011;10233;50.814;6.590;2024-03-23T01:34:17;2.23;;;0.47;;
20144;SDS011;10233;50.814;6.590;2024-03-23T01:35:17;0.30;;;0.30;;
20144;SDS011;10233;50.814;6.590;2024-03-23T01:36:18;0.47;;;0.47;;
20144;SDS011;10233;50.814;6.590;2024-03-23T01:37:19;1.30;;;1.20;;
20144;SDS011;10233;50.814;6.590;2024-03-23T01:38:20;0.45;;;0.45;;
20144;SDS011;10233;50.814;6.590;2024-03-23T01:39:20;2.90;;;0.70;;
20144;SDS011;10233;50.814;6.590;2024-03-23T01:40:21;0.43;;;0.40;;
20144;SDS011;10233;50.814;6.590;2024-03-23T01:41:21;1.40;;;0.40;;
20144;SDS011;10233;50.814;6.590;2024-03-23T01:42:21;0.45;;;0.30;;
20144;SDS011;10233;50.814;6.590;2024-03-23T01:43:22;7.40;;;0.40;;
20144;SDS011;10233;50.814;6.590;2024-03-23T01:44:22;2.47;;;0.67;;
20144;SDS011;10233;50.814;6.590;2024-03-23T01:45:23;0.35;;;0.35;;
20144;SDS011;10233;50.814;6.590;2024-03-23T01:46:24;1.93;;;0.87;;
20144;SDS011;10233;50.814;6.590;2024-03-23T01:47:24;1.30;;;0.70;;
20144;SDS011;10233;50.814;6.590;2024-03-23T01:48:25;0.80;;;0.80;;
20144;SDS011;10233;50.814;6.590;2024-03-23T01:49:25;1.50;;;0.40;;
20144;SDS011;10233;50.814;6.590;2024-03-23T01:50:26;1.77;;;0.47;;
20144;SDS011;10233;50.814;6.590;2024-03-23T01:51:27;2.38;;;0.65;;
20144;SDS011;10233;50.814;6.590;2024-03-23T01:52:29;0.35;;;0.35;;
20144;SDS011;10233;50.814;6.590;2024-03-23T01:53:30;0.60;;;0.50;;
20144;SDS011;10233;50.814;6.590;2024-03-23T01:54:31;0.43;;;0.43;;
20144;SDS011;10233;50.814;6.590;2024-03-23T01:55:34;2.30;;;1.07;;
20144;SDS011;10233;50.814;6.590;2024-03-23T01:56:39;0.50;;;0.38;;
20144;SDS011;10233;50.814;6.590;2024-03-23T01:57:39;0.17;;;0.17;;
20144;SDS011;10233;50.814;6.590;2024-03-23T01:58:40;1.10;;;0.57;;
20144;SDS011;10233;50.814;6.590;2024-03-23T01:59:40;1.50;;;0.60;;
20144;SDS011;10233;50.814;6.590;2024-03-23T02:00:44;1.63;;;0.80;;
20144;SDS011;10233;50.814;6.590;2024-03-23T02:01:44;0.33;;;0.30;;
20144;SDS011;10233;50.814;6.590;2024-03-23T02:02:45;0.60;;;0.35;;
20144;SDS011;10233;50.814;6.590;2024-03-23T02:03:46;0.50;;;0.40;;
20144;SDS011;10233;50.814;6.590;2024-03-23T02:04:46;0.80;;;0.30;;
20144;SDS011;10233;50.814;6.590;2024-03-23T02:05:46;0.57;;;0.47;;
20144;SDS011;10233;50.814;6.590;2024-03-23T02:06:47;2.40;;;0.40;;
20144;SDS011;10233;50.814;6.590;2024-03-23T02:07:48;3.40;;;1.50;;
20144;SDS011;10233;50.814;6.590;2024-03-23T02:08:51;0.43;;;0.25;;
20144;SDS011;10233;50.814;6.590;2024-03-23T02:09:51;7.40;;;0.40;;
20144;SDS011;10233;50.814;6.590;2024-03-23T02:10:53;7.30;;;0.60;;
20144;SDS011;10233;50.814;6.590;2024-03-23T02:11:54;1.70;;;0.10;;
20144;SDS011;10233;50.814;6.590;2024-03-23T02:12:54;4.35;;;0.70;;
20144;SDS011;10233;50.814;6.590;2024-03-23T02:13:55;0.30;;;0.30;;
20144;SDS011;10233;50.814;6.590;2024-03-23T02:14:55;0.40;;;0.40;;
20144;SDS011;10233;50.814;6.590;2024-03-23T02:15:56;0.10;;;0.10;;
20144;SDS011;10233;50.814;6.590;2024-03-23T02:16:56;0.70;;;0.30;;
20144;SDS011;10233;50.814;6.590;2024-03-23T02:17:56;1.77;;;0.37;;
20144;SDS011;10233;50.814;6.590;2024-03-23T02:18:57;0.47;;;0.17;;
20144;SDS011;10233;50.814;6.590;2024-03-23T02:19:57;0.27;;;0.27;;
20144;SDS011;10233;50.814;6.590;2024-03-23T02:20:58;0.40;;;0.30;;
20144;SDS011;10233;50.814;6.590;2024-03-23T02:21:58;0.00;;;0.00;;
20144;SDS011;10233;50.814;6.590;2024-03-23T02:22:59;0.15;;;0.15;;
20144;SDS011;10233;50.814;6.590;2024-03-23T02:23:59;0.70;;;0.70;;
20144;SDS011;10233;50.814;6.590;2024-03-23T02:25:00;1.80;;;1.15;;
20144;SDS011;10233;50.814;6.590;2024-03-23T02:26:00;0.73;;;0.17;;
20144;SDS011;10233;50.814;6.590;2024-03-23T02:27:01;0.17;;;0.17;;
20144;SDS011;10233;50.814;6.590;2024-03-23T02:28:02;0.35;;;0.35;;
20144;SDS011;10233;50.814;6.590;2024-03-23T02:29:03;1.20;;;0.82;;
20144;SDS011;10233;50.814;6.590;2024-03-23T02:30:03;5.50;;;0.50;;
20144;SDS011;10233;50.814;6.590;2024-03-23T02:31:04;1.05;;;0.45;;
20144;SDS011;10233;50.814;6.590;2024-03-23T02:32:04;0.53;;;0.37;;
20144;SDS011;10233;50.814;6.590;2024-03-23T02:33:06;0.10;;;0.10;;
20144;SDS011;10233;50.814;6.590;2024-03-23T02:34:06;1.70;;;0.50;;
20144;SDS011;10233;50.814;6.590;2024-03-23T02:35:06;0.20;;;0.20;;
20144;SDS011;10233;50.814;6.590;2024-03-23T02:36:07;2.35;;;0.60;;
20144;SDS011;10233;50.814;6.590;2024-03-23T02:37:11;0.93;;;0.40;;
20144;SDS011;10233;50.814;6.590;2024-03-23T02:38:11;0.43;;;0.43;;
20144;SDS011;10233;50.814;6.590;2024-03-23T02:39:12;3.50;;;0.53;;
20144;SDS011;10233;50.814;6.590;2024-03-23T02:40:12;1.90;;;0.30;;
20144;SDS011;10233;50.814;6.590;2024-03-23T02:41:13;0.20;;;0.20;;
20144;SDS011;10233;50.814;6.590;2024-03-23T02:42:14;0.63;;;0.50;;
20144;SDS011;10233;50.814;6.590;2024-03-23T02:43:17;2.33;;;0.60;;
20144;SDS011;10233;50.814;6.590;2024-03-23T02:44:17;4.20;;;0.60;;
20144;SDS011;10233;50.814;6.590;2024-03-23T02:45:18;0.43;;;0.17;;
20144;SDS011;10233;50.814;6.590;2024-03-23T02:46:18;0.08;;;0.03;;
20144;SDS011;10233;50.814;6.590;2024-03-23T02:47:18;0.60;;;0.50;;
20144;SDS011;10233;50.814;6.590;2024-03-23T02:48:19;0.50;;;0.30;;
20144;SDS011;10233;50.814;6.590;2024-03-23T02:49:19;2.10;;;0.30;;
20144;SDS011;10233;50.814;6.590;2024-03-23T02:50:21;0.55;;;0.40;;
20144;SDS011;10233;50.814;6.590;2024-03-23T02:51:21;3.17;;;0.67;;
20144;SDS011;10233;50.814;6.590;2024-03-23T02:52:22;0.37;;;0.20;;
20144;SDS011;10233;50.814;6.590;2024-03-23T02:53:22;0.83;;;0.50;;
20144;SDS011;10233;50.814;6.590;2024-03-23T02:54:23;6.40;;;0.80;;
20144;SDS011;10233;50.814;6.590;2024-03-23T02:55:23;2.87;;;0.40;;
20144;SDS011;10233;50.814;6.590;2024-03-23T02:56:24;0.20;;;0.20;;
20144;SDS011;10233;50.814;6.590;2024-03-23T02:57:24;1.70;;;0.40;;
20144;SDS011;10233;50.814;6.590;2024-03-23T02:58:24;0.40;;;0.30;;
20144;SDS011;10233;50.814;6.590;2024-03-23T02:59:25;0.30;;;0.30;;
20144;SDS011;10233;50.814;6.590;2024-03-23T03:00:25;2.50;;;0.30;;
20144;SDS011;10233;50.814;6.590;2024-03-23T03:01:26;0.40;;;0.40;;
20144;SDS011;10233;50.814;6.590;2024-03-23T03:02:26;7.10;;;0.70;;
20144;SDS011;10233;50.814;6.590;2024-03-23T03:03:26;4.40;;;0.40;;
20144;SDS011;10233;50.814;6.590;2024-03-23T03:04:27;6.40;;;1.03;;
20144;SDS011;10233;50.814;6.590;2024-03-23T03:05:27;0.33;;;0.33;;
20144;SDS011;10233;50.814;6.590;2024-03-23T03:06:29;0.20;;;0.20;;
20144;SDS011;10233;50.814;6.590;2024-03-23T03:07:31;1.33;;;0.52;;
20144;SDS011;10233;50.814;6.590;2024-03-23T03:08:32;0.08;;;0.08;;
20144;SDS011;10233;50.814;6.590;2024-03-23T03:09:33;2.47;;;0.47;;
20144;SDS011;10233;50.814;6.590;2024-03-23T03:10:35;0.40;;;0.30;;
20144;SDS011;10233;50.814;6.590;2024-03-23T03:11:36;0.10;;;0.10;;
20144;SDS011;10233;50.814;6.590;2024-03-23T03:12:37;0.00;;;0.00;;
20144;SDS011;10233;50.814;6.590;2024-03-23T03:13:38;1.30;;;0.30;;
20144;SDS011;10233;50.814;6.590;2024-03-23T03:14:38;0.80;;;0.40;;
20144;SDS011;10233;50.814;6.590;2024-03-23T03:15:42;1.50;;;0.60;;
20144;SDS011;10233;50.814;6.590;2024-03-23T03:16:43;0.10;;;0.10;;
20144;SDS011;10233;50.814;6.590;2024-03-23T03:17:44;1.10;;;0.40;;
20144;SDS011;10233;50.814;6.590;2024-03-23T03:18:55;2.10;;;1.40;;
20144;SDS011;10233;50.814;6.590;2024-03-23T03:19:56;0.93;;;0.82;;
20144;SDS011;10233;50.814;6.590;2024-03-23T03:21:03;1.55;;;0.28;;
20144;SDS011;10233;50.814;6.590;2024-03-23T03:22:07;0.20;;;0.20;;
20144;SDS011;10233;50.814;6.590;2024-03-23T03:23:07;3.80;;;0.30;;
20144;SDS011;10233;50.814;6.590;2024-03-23T03:24:08;3.10;;;0.30;;
20144;SDS011;10233;50.814;6.590;2024-03-23T03:25:08;5.93;;;0.40;;
20144;SDS011;10233;50.814;6.590;2024-03-23T03:26:09;0.20;;;0.20;;
20144;SDS011;10233;50.814;6.590;2024-03-23T03:27:09;0.10;;;0.10;;
20144;SDS011;10233;50.814;6.590;2024-03-23T03:28:10;2.03;;;0.63;;
20144;SDS011;10233;50.814;6.590;2024-03-23T03:29:10;2.40;;;0.60;;
20144;SDS011;10233;50.814;6.590;2024-03-23T03:30:11;5.20;;;1.55;;
20144;SDS011;10233;50.814;6.590;2024-03-23T03:31:12;0.65;;;0.55;;
20144;SDS011;10233;50.814;6.590;2024-03-23T03:32:13;0.38;;;0.30;;
20144;SDS011;10233;50.814;6.590;2024-03-23T03:33:13;0.50;;;0.20;;
20144;SDS011;10233;50.814;6.590;2024-03-23T03:34:13;1.00;;;0.45;;
20144;SDS011;10233;50.814;6.590;2024-03-23T03:35:14;2.70;;;0.20;;
20144;SDS011;10233;50.814;6.590;2024-03-23T03:36:14;0.40;;;0.30;;
20144;SDS011;10233;50.814;6.590;2024-03-23T03:37:15;1.10;;;0.43;;
20144;SDS011;10233;50.814;6.590;2024-03-23T03:38:15;2.00;;;1.40;;
20144;SDS011;10233;50.814;6.590;2024-03-23T03:39:16;1.95;;;0.55;;
20144;SDS011;10233;50.814;6.590;2024-03-23T03:40:16;1.10;;;0.90;;
20144;SDS011;10233;50.814;6.590;2024-03-23T03:41:18;3.20;;;0.10;;
20144;SDS011;10233;50.814;6.590;2024-03-23T03:42:18;0.90;;;0.30;;
20144;SDS011;10233;50.814;6.590;2024-03-23T03:43:19;0.30;;;0.10;;
20144;SDS011;10233;50.814;6.590;2024-03-23T03:44:19;0.10;;;0.10;;
20144;SDS011;10233;50.814;6.590;2024-03-23T03:45:20;1.10;;;0.40;;
20144;SDS011;10233;50.814;6.590;2024-03-23T03:46:20;7.70;;;0.40;;
20144;SDS011;10233;50.814;6.590;2024-03-23T03:47:21;2.28;;;0.77;;
20144;SDS011;10233;50.814;6.590;2024-03-23T03:48:21;0.50;;;0.50;;
20144;SDS011;10233;50.814;6.590;2024-03-23T03:49:22;0.75;;;0.28;;
20144;SDS011;10233;50.814;6.590;2024-03-23T03:50:22;2.40;;;1.20;;
20144;SDS011;10233;50.814;6.590;2024-03-23T03:51:23;4.70;;;0.37;;
20144;SDS011;10233;50.814;6.590;2024-03-23T03:52:23;0.93;;;0.50;;
20144;SDS011;10233;50.814;6.590;2024-03-23T03:53:24;7.60;;;1.90;;
20144;SDS011;10233;50.814;6.590;2024-03-23T03:54:24;1.90;;;0.10;;
20144;SDS011;10233;50.814;6.590;2024-03-23T03:55:25;0.50;;;0.30;;
20144;SDS011;10233;50.814;6.590;2024-03-23T03:56:25;0.70;;;0.33;;
20144;SDS011;10233;50.814;6.590;2024-03-23T03:57:25;1.10;;;0.40;;
20144;SDS011;10233;50.814;6.590;2024-03-23T03:58:26;6.43;;;0.90;;
20144;SDS011;10233;50.814;6.590;2024-03-23T03:59:26;4.13;;;1.43;;
20144;SDS011;10233;50.814;6.590;2024-03-23T04:00:27;3.00;;;0.70;;
20144;SDS011;10233;50.814;6.590;2024-03-23T04:01:27;0.57;;;0.50;;
20144;SDS011;10233;50.814;6.590;2024-03-23T04:02:28;1.90;;;0.45;;
20144;SDS011;10233;50.814;6.590;2024-03-23T04:03:28;0.43;;;0.10;;
20144;SDS011;10233;50.814;6.590;2024-03-23T04:04:28;0.60;;;0.40;;
20144;SDS011;10233;50.814;6.590;2024-03-23T04:05:29;2.17;;;0.50;;
20144;SDS011;10233;50.814;6.590;2024-03-23T04:06:29;0.50;;;0.30;;
20144;SDS011;10233;50.814;6.590;2024-03-23T04:07:30;0.20;;;0.20;;
20144;SDS011;10233;50.814;6.590;2024-03-23T04:08:30;4.80;;;0.80;;
20144;SDS011;10233;50.814;6.590;2024-03-23T04:09:31;0.13;;;0.13;;
20144;SDS011;10233;50.814;6.590;2024-03-23T04:10:31;1.20;;;0.70;;
20144;SDS011;10233;50.814;6.590;2024-03-23T04:11:32;0.05;;;0.05;;
20144;SDS011;10233;50.814;6.590;2024-03-23T04:12:32;1.10;;;0.50;;
20144;SDS011;10233;50.814;6.590;2024-03-23T04:13:32;2.73;;;0.87;;
20144;SDS011;10233;50.814;6.590;2024-03-23T04:14:34;7.10;;;0.80;;
20144;SDS011;10233;50.814;6.590;2024-03-23T04:15:34;0.30;;;0.30;;
20144;SDS011;10233;50.814;6.590;2024-03-23T04:16:35;6.47;;;0.68;;
20144;SDS011;10233;50.814;6.590;2024-03-23T04:17:35;1.30;;;0.53;;
20144;SDS011;10233;50.814;6.590;2024-03-23T04:18:36;1.90;;;0.22;;
20144;SDS011;10233;50.814;6.590;2024-03-23T04:19:37;1.60;;;0.70;;
20144;SDS011;10233;50.814;6.590;2024-03-23T04:20:37;2.80;;;0.90;;
20144;SDS011;10233;50.814;6.590;2024-03-23T04:21:37;0.80;;;0.47;;
20144;SDS011;10233;50.814;6.590;2024-03-23T04:22:38;3.30;;;0.70;;
20144;SDS011;10233;50.814;6.590;2024-03-23T04:23:39;0.40;;;0.30;;
20144;SDS011;10233;50.814;6.590;2024-03-23T04:24:39;1.00;;;0.30;;
20144;SDS011;10233;50.814;6.590;2024-03-23T04:25:39;1.08;;;0.50;;
20144;SDS011;10233;50.814;6.590;2024-03-23T04:26:41;2.00;;;0.40;;
20144;SDS011;10233;50.814;6.590;2024-03-23T04:27:42;0.28;;;0.20;;
20144;SDS011;10233;50.814;6.590;2024-03-23T04:28:42;1.23;;;0.47;;
20144;SDS011;10233;50.814;6.590;2024-03-23T04:29:46;2.50;;;0.50;;
20144;SDS011;10233;50.814;6.590;2024-03-23T04:30:47;0.50;;;0.25;;
20144;SDS011;10233;50.814;6.590;2024-03-23T04:31:48;0.30;;;0.30;;
20144;SDS011;10233;50.814;6.590;2024-03-23T04:32:48;1.07;;;0.30;;
20144;SDS011;10233;50.814;6.590;2024-03-23T04:33:49;0.07;;;0.07;;
20144;SDS011;10233;50.814;6.590;2024-03-23T04:34:50;3.90;;;0.40;;
20144;SDS011;10233;50.814;6.590;2024-03-23T04:35:50;1.80;;;0.70;;
20144;SDS011;10233;50.814;6.590;2024-03-23T04:36:51;0.65;;;0.63;;
20144;SDS011;10233;50.814;6.590;2024-03-23T04:37:51;2.00;;;0.90;;
20144;SDS011;10233;50.814;6.590;2024-03-23T04:38:52;2.90;;;0.28;;
20144;SDS011;10233;50.814;6.590;2024-03-23T04:39:53;1.10;;;0.70;;
20144;SDS011;10233;50.814;6.590;2024-03-23T04:40:56;1.08;;;0.40;;
20144;SDS011;10233;50.814;6.590;2024-03-23T04:41:58;1.90;;;0.60;;
20144;SDS011;10233;50.814;6.590;2024-03-23T04:42:59;0.60;;;0.60;;
20144;SDS011;10233;50.814;6.590;2024-03-23T04:44:01;1.00;;;0.50;;
20144;SDS011;10233;50.814;6.590;2024-03-23T04:45:02;2.33;;;0.77;;
20144;SDS011;10233;50.814;6.590;2024-03-23T04:46:02;5.63;;;0.33;;
20144;SDS011;10233;50.814;6.590;2024-03-23T04:47:03;0.65;;;0.57;;
20144;SDS011;10233;50.814;6.590;2024-03-23T04:48:07;0.75;;;0.40;;
20144;SDS011;10233;50.814;6.590;2024-03-23T04:49:08;4.30;;;0.88;;
20144;SDS011;10233;50.814;6.590;2024-03-23T04:50:08;0.80;;;0.33;;
20144;SDS011;10233;50.814;6.590;2024-03-23T04:51:10;3.13;;;1.70;;
20144;SDS011;10233;50.814;6.590;2024-03-23T04:52:14;4.30;;;1.63;;
20144;SDS011;10233;50.814;6.590;2024-03-23T04:53:16;8.40;;;1.30;;
20144;SDS011;10233;50.814;6.590;2024-03-23T04:54:17;4.23;;;2.13;;
20144;SDS011;10233;50.814;6.590;2024-03-23T04:55:17;3.50;;;2.42;;
20144;SDS011;10233;50.814;6.590;2024-03-23T04:56:18;6.33;;;1.33;;
20144;SDS011;10233;50.814;6.590;2024-03-23T04:57:19;9.60;;;4.72;;
20144;SDS011;10233;50.814;6.590;2024-03-23T04:58:22;5.85;;;3.20;;
20144;SDS011;10233;50.814;6.590;2024-03-23T04:59:23;10.57;;;4.65;;
20144;SDS011;10233;50.814;6.590;2024-03-23T05:00:24;14.07;;;6.17;;
20144;SDS011;10233;50.814;6.590;2024-03-23T05:01:25;14.73;;;6.20;;
20144;SDS011;10233;50.814;6.590;2024-03-23T05:02:26;59.28;;;26.80;;
20144;SDS011;10233;50.814;6.590;2024-03-23T05:03:27;22.70;;;10.90;;
20144;SDS011;10233;50.814;6.590;2024-03-23T05:04:27;14.45;;;7.72;;
20144;SDS011;10233;50.814;6.590;2024-03-23T05:05:28;11.87;;;4.57;;
20144;SDS011;10233;50.814;6.590;2024-03-23T05:06:28;11.90;;;6.20;;
20144;SDS011;10233;50.814;6.590;2024-03-23T05:07:29;18.43;;;7.67;;
20144;SDS011;10233;50.814;6.590;2024-03-23T05:08:29;9.53;;;4.60;;
20144;SDS011;10233;50.814;6.590;2024-03-23T05:09:30;5.13;;;3.20;;
20144;SDS011;10233;50.814;6.590;2024-03-23T05:10:31;2.70;;;2.33;;
20144;SDS011;10233;50.814;6.590;2024-03-23T05:11:33;8.45;;;2.13;;
20144;SDS011;10233;50.814;6.590;2024-03-23T05:12:34;1.30;;;0.50;;
20144;SDS011;10233;50.814;6.590;2024-03-23T05:13:34;0.67;;;0.67;;
20144;SDS011;10233;50.814;6.590;2024-03-23T05:14:34;1.88;;;0.43;;
20144;SDS011;10233;50.814;6.590;2024-03-23T05:15:35;0.67;;;0.57;;
20144;SDS011;10233;50.814;6.590;2024-03-23T05:16:35;1.13;;;0.80;;
20144;SDS011;10233;50.814;6.590;2024-03-23T05:17:36;0.60;;;0.50;;
20144;SDS011;10233;50.814;6.590;2024-03-23T05:18:37;0.90;;;0.43;;
20144;SDS011;10233;50.814;6.590;2024-03-23T05:19:38;3.80;;;0.93;;
20144;SDS011;10233;50.814;6.590;2024-03-23T05:20:38;1.60;;;1.50;;
20144;SDS011;10233;50.814;6.590;2024-03-23T05:21:39;1.80;;;0.40;;
20144;SDS011;10233;50.814;6.590;2024-03-23T05:22:40;1.20;;;1.10;;
20144;SDS011;10233;50.814;6.590;2024-03-23T05:23:40;4.50;;;0.90;;
20144;SDS011;10233;50.814;6.590;2024-03-23T05:24:40;3.17;;;1.43;;
20144;SDS011;10233;50.814;6.590;2024-03-23T05:25:41;1.50;;;0.50;;
20144;SDS011;10233;50.814;6.590;2024-03-23T05:26:41;0.43;;;0.43;;
20144;SDS011;10233;50.814;6.590;2024-03-23T05:27:42;1.30;;;0.43;;
20144;SDS011;10233;50.814;6.590;2024-03-23T05:28:42;0.43;;;0.43;;
20144;SDS011;10233;50.814;6.590;2024-03-23T05:29:43;0.35;;;0.35;;
20144;SDS011;10233;50.814;6.590;2024-03-23T05:30:49;3.00;;;1.00;;
20144;SDS011;10233;50.814;6.590;2024-03-23T05:31:53;1.00;;;0.70;;
20144;SDS011;10233;50.814;6.590;2024-03-23T05:32:56;1.77;;;0.88;;
20144;SDS011;10233;50.814;6.590;2024-03-23T05:33:57;1.30;;;1.10;;
20144;SDS011;10233;50.814;6.590;2024-03-23T05:34:57;2.70;;;0.52;;
20144;SDS011;10233;50.814;6.590;2024-03-23T05:35:58;1.40;;;0.50;;
20144;SDS011;10233;50.814;6.590;2024-03-23T05:37:00;0.40;;;0.40;;
20144;SDS011;10233;50.814;6.590;2024-03-23T05:38:01;0.17;;;0.17;;
20144;SDS011;10233;50.814;6.590;2024-03-23T05:39:01;1.30;;;0.95;;
20144;SDS011;10233;50.814;6.590;2024-03-23T05:40:02;0.97;;;0.47;;
20144;SDS011;10233;50.814;6.590;2024-03-23T05:41:03;1.00;;;0.75;;
20144;SDS011;10233;50.814;6.590;2024-03-23T05:42:04;0.20;;;0.20;;
20144;SDS011;10233;50.814;6.590;2024-03-23T05:43:04;0.70;;;0.40;;
20144;SDS011;10233;50.814;6.590;2024-03-23T05:44:05;2.22;;;1.13;;
20144;SDS011;10233;50.814;6.590;2024-03-23T05:45:06;0.83;;;0.53;;
20144;SDS011;10233;50.814;6.590;2024-03-23T05:46:07;4.00;;;0.50;;
20144;SDS011;10233;50.814;6.590;2024-03-23T05:47:08;4.38;;;0.70;;
20144;SDS011;10233;50.814;6.590;2024-03-23T05:48:09;0.20;;;0.17;;
20144;SDS011;10233;50.814;6.590;2024-03-23T05:49:09;0.37;;;0.37;;
20144;SDS011;10233;50.814;6.590;2024-03-23T05:50:10;0.73;;;0.30;;
20144;SDS011;10233;50.814;6.590;2024-03-23T05:51:12;1.17;;;0.65;;
20144;SDS011;10233;50.814;6.590;2024-03-23T05:52:13;0.30;;;0.30;;
20144;SDS011;10233;50.814;6.590;2024-03-23T05:53:14;1.30;;;0.50;;
20144;SDS011;10233;50.814;6.590;2024-03-23T05:54:15;0.40;;;0.20;;
20144;SDS011;10233;50.814;6.590;2024-03-23T05:55:16;2.70;;;1.00;;
20144;SDS011;10233;50.814;6.590;2024-03-23T05:56:19;4.37;;;0.97;;
20144;SDS011;10233;50.814;6.590;2024-03-23T05:57:19;3.72;;;0.32;;
20144;SDS011;10233;50.814;6.590;2024-03-23T05:58:20;1.08;;;0.68;;
20144;SDS011;10233;50.814;6.590;2024-03-23T05:59:20;2.50;;;1.40;;
20144;SDS011;10233;50.814;6.590;2024-03-23T06:00:21;3.30;;;0.80;;
20144;SDS011;10233;50.814;6.590;2024-03-23T06:01:21;0.13;;;0.13;;
20144;SDS011;10233;50.814;6.590;2024-03-23T06:02:22;1.40;;;0.90;;
20144;SDS011;10233;50.814;6.590;2024-03-23T06:03:23;0.75;;;0.38;;
20144;SDS011;10233;50.814;6.590;2024-03-23T06:04:23;11.80;;;1.50;;
20144;SDS011;10233;50.814;6.590;2024-03-23T06:05:24;2.25;;;0.98;;
20144;SDS011;10233;50.814;6.590;2024-03-23T06:06:24;0.63;;;0.33;;
20144;SDS011;10233;50.814;6.590;2024-03-23T06:07:25;1.58;;;1.00;;
20144;SDS011;10233;50.814;6.590;2024-03-23T06:08:25;1.10;;;0.60;;
20144;SDS011;10233;50.814;6.590;2024-03-23T06:09:25;1.08;;;0.82;;
20144;SDS011;10233;50.814;6.590;2024-03-23T06:10:26;5.30;;;0.77;;
20144;SDS011;10233;50.814;6.590;2024-03-23T06:11:28;2.53;;;1.38;;
20144;SDS011;10233;50.814;6.590;2024-03-23T06:12:28;1.37;;;0.60;;
20144;SDS011;10233;50.814;6.590;2024-03-23T06:13:29;1.65;;;1.08;;
20144;SDS011;10233;50.814;6.590;2024-03-23T06:14:30;4.80;;;0.57;;
20144;SDS011;10233;50.814;6.590;2024-03-23T06:15:30;2.78;;;0.65;;
20144;SDS011;10233;50.814;6.590;2024-03-23T06:16:31;2.17;;;1.17;;
20144;SDS011;10233;50.814;6.590;2024-03-23T06:17:32;2.47;;;1.00;;
20144;SDS011;10233;50.814;6.590;2024-03-23T06:18:33;1.70;;;0.50;;
20144;SDS011;10233;50.814;6.590;2024-03-23T06:19:33;0.80;;;0.60;;
20144;SDS011;10233;50.814;6.590;2024-03-23T06:20:34;1.20;;;0.53;;
20144;SDS011;10233;50.814;6.590;2024-03-23T06:21:34;1.33;;;1.10;;
20144;SDS011;10233;50.814;6.590;2024-03-23T06:22:35;1.83;;;0.80;;
20144;SDS011;10233;50.814;6.590;2024-03-23T06:23:36;2.50;;;0.73;;
20144;SDS011;10233;50.814;6.590;2024-03-23T06:24:37;1.77;;;0.57;;
20144;SDS011;10233;50.814;6.590;2024-03-23T06:25:37;0.87;;;0.57;;
20144;SDS011;10233;50.814;6.590;2024-03-23T06:26:38;1.00;;;0.30;;
20144;SDS011;10233;50.814;6.590;2024-03-23T06:27:38;8.05;;;1.02;;
20144;SDS011;10233;50.814;6.590;2024-03-23T06:28:39;2.47;;;0.73;;
20144;SDS011;10233;50.814;6.590;2024-03-23T06:29:39;1.73;;;0.95;;
20144;SDS011;10233;50.814;6.590;2024-03-23T06:30:40;4.70;;;0.73;;
20144;SDS011;10233;50.814;6.590;2024-03-23T06:31:40;0.60;;;0.50;;
20144;SDS011;10233;50.814;6.590;2024-03-23T06:32:41;2.97;;;0.97;;
20144;SDS011;10233;50.814;6.590;2024-03-23T06:33:41;3.10;;;0.90;;
20144;SDS011;10233;50.814;6.590;2024-03-23T06:34:42;4.05;;;0.85;;
20144;SDS011;10233;50.814;6.590;2024-03-23T06:35:42;2.07;;;0.93;;
20144;SDS011;10233;50.814;6.590;2024-03-23T06:36:43;1.67;;;0.90;;
20144;SDS011;10233;50.814;6.590;2024-03-23T06:37:44;4.72;;;0.77;;
20144;SDS011;10233;50.814;6.590;2024-03-23T06:38:45;1.13;;;0.60;;
20144;SDS011;10233;50.814;6.590;2024-03-23T06:39:45;0.80;;;0.60;;
20144;SDS011;10233;50.814;6.590;2024-03-23T06:40:47;6.25;;;1.50;;
20144;SDS011;10233;50.814;6.590;2024-03-23T06:41:52;1.02;;;0.90;;
20144;SDS011;10233;50.814;6.590;2024-03-23T06:42:53;4.97;;;1.42;;
20144;SDS011;10233;50.814;6.590;2024-03-23T06:43:54;1.80;;;1.23;;
20144;SDS011;10233;50.814;6.590;2024-03-23T06:44:54;4.30;;;1.20;;
20144;SDS011;10233;50.814;6.590;2024-03-23T06:45:55;3.53;;;1.43;;
20144;SDS011;10233;50.814;6.590;2024-03-23T06:46:56;6.25;;;1.30;;
20144;SDS011;10233;50.814;6.590;2024-03-23T06:47:57;3.85;;;1.05;;
20144;SDS011;10233;50.814;6.590;2024-03-23T06:48:58;1.00;;;0.75;;
20144;SDS011;10233;50.814;6.590;2024-03-23T06:49:59;1.60;;;1.20;;
20144;SDS011;10233;50.814;6.590;2024-03-23T06:51:02;9.57;;;1.95;;
20144;SDS011;10233;50.814;6.590;2024-03-23T06:52:03;5.00;;;1.00;;
20144;SDS011;10233;50.814;6.590;2024-03-23T06:53:04;4.13;;;0.83;;
20144;SDS011;10233;50.814;6.590;2024-03-23T06:54:05;3.03;;;1.35;;
20144;SDS011;10233;50.814;6.590;2024-03-23T06:55:06;4.37;;;1.20;;
20144;SDS011;10233;50.814;6.590;2024-03-23T06:56:07;1.45;;;1.00;;
20144;SDS011;10233;50.814;6.590;2024-03-23T06:57:07;8.18;;;1.67;;
20144;SDS011;10233;50.814;6.590;2024-03-23T06:58:08;4.87;;;1.90;;
20144;SDS011;10233;50.814;6.590;2024-03-23T06:59:08;7.70;;;2.10;;
20144;SDS011;10233;50.814;6.590;2024-03-23T07:00:09;8.60;;;1.45;;
20144;SDS011;10233;50.814;6.590;2024-03-23T07:01:10;5.00;;;1.77;;